Time;durP1;ratioP1;P1;durP2;ratioP2;P2;SDS_P1;SDS_P2;PMS_P1;PMS_P2;Temp;Humidity;BMP_temperature;BMP_pressure;BME280_temperature;BME280_humidity;BME280_pressure;Samples;Min_cycle;Max_cycle;Signal;HPM_P1;HPM_P2
2021/12/04 00:00:22;;;;;;;2.40;1.35;;;1.60;99.90;;;;;;7387164;19;20316;-78
2021/12/04 00:02:51;;;;;;;3.63;1.63;;;1.60;99.90;;;;;;7393404;19;20320;-78
2021/12/04 00:05:18;;;;;;;2.50;1.45;;;1.70;99.90;;;;;;7392451;19;20859;-78
2021/12/04 00:07:44;;;;;;;2.10;1.17;;;1.60;99.90;;;;;;7387720;19;20351;-78
2021/12/04 00:10:16;;;;;;;1.50;1.40;;;1.70;99.90;;;;;;7387891;19;20300;-79
2021/12/04 00:12:49;;;;;;;1.23;1.20;;;1.60;99.90;;;;;;7385778;19;20690;-79
2021/12/04 00:15:14;;;;;;;2.17;1.58;;;1.60;99.90;;;;;;7387763;19;20314;-78
2021/12/04 00:17:40;;;;;;;1.45;1.35;;;1.60;99.90;;;;;;7390096;19;20336;-79
2021/12/04 00:20:07;;;;;;;1.50;1.23;;;1.50;99.90;;;;;;7386877;19;20856;-79
2021/12/04 00:22:34;;;;;;;1.17;1.17;;;1.60;99.90;;;;;;7390151;19;20320;-78
2021/12/04 00:24:59;;;;;;;1.90;1.60;;;1.60;99.90;;;;;;7394980;19;20776;-78
2021/12/04 00:27:25;;;;;;;2.05;1.50;;;1.60;99.90;;;;;;7394662;19;20332;-79
2021/12/04 00:29:53;;;;;;;1.50;1.40;;;1.60;99.90;;;;;;7394730;19;20341;-79
2021/12/04 00:32:33;;;;;;;1.45;1.35;;;1.60;99.90;;;;;;7397360;19;20308;-78
2021/12/04 00:35:21;;;;;;;1.23;1.20;;;1.60;99.90;;;;;;7294920;19;2004437;-79
2021/12/04 00:51:15;;;;;;;1.90;1.00;;;1.80;99.90;;;;;;7299087;19;2004523;-79
2021/12/04 00:53:41;;;;;;;1.80;1.43;;;1.80;99.90;;;;;;7398212;19;20708;-79
2021/12/04 00:56:07;;;;;;;1.50;1.40;;;1.70;99.90;;;;;;7398943;19;20343;-78
2021/12/04 00:58:33;;;;;;;1.88;1.48;;;1.80;99.90;;;;;;7400315;19;20324;-79
2021/12/04 01:00:59;;;;;;;1.63;1.40;;;1.80;99.90;;;;;;7387056;19;20899;-80
2021/12/04 01:03:25;;;;;;;3.22;1.73;;;1.80;99.90;;;;;;7399106;19;20404;-78
2021/12/04 01:05:51;;;;;;;1.40;1.23;;;1.80;99.90;;;;;;7396973;19;20313;-79
2021/12/04 01:08:17;;;;;;;1.07;1.07;;;1.80;99.90;;;;;;7396105;19;20388;-78
2021/12/04 01:10:43;;;;;;;1.40;1.30;;;1.80;99.90;;;;;;7393530;19;20368;-78
2021/12/04 01:13:14;;;;;;;1.30;1.20;;;1.80;99.90;;;;;;7401792;19;20321;-79
2021/12/04 01:15:42;;;;;;;1.45;1.30;;;1.70;99.90;;;;;;7391366;19;20903;-79
2021/12/04 01:18:08;;;;;;;1.50;1.40;;;1.80;99.90;;;;;;7366710;19;20317;-79
2021/12/04 01:20:34;;;;;;;1.42;1.30;;;1.60;99.90;;;;;;7390397;19;20329;-78
2021/12/04 01:23:01;;;;;;;1.70;1.38;;;1.70;99.90;;;;;;7392945;19;20416;-78
2021/12/04 01:25:26;;;;;;;2.47;1.48;;;1.60;99.90;;;;;;7388717;19;21041;-79
2021/12/04 01:27:52;;;;;;;1.50;1.40;;;1.80;99.90;;;;;;7388507;19;20451;-78
2021/12/04 01:30:18;;;;;;;1.60;1.20;;;1.60;99.90;;;;;;7391895;19;20332;-79
2021/12/04 01:32:44;;;;;;;1.60;1.50;;;1.50;99.90;;;;;;7388796;19;20321;-78
2021/12/04 01:35:11;;;;;;;1.27;1.27;;;1.50;99.90;;;;;;7390793;19;20340;-78
2021/12/04 01:37:37;;;;;;;1.35;1.25;;;1.20;99.90;;;;;;7374914;19;21005;-78
2021/12/04 01:40:06;;;;;;;1.52;1.38;;;1.30;99.90;;;;;;7398963;19;20316;-79
2021/12/04 01:42:36;;;;;;;1.48;1.38;;;1.10;99.90;;;;;;7392600;19;20357;-78
2021/12/04 01:45:04;;;;;;;1.30;1.20;;;1.20;99.90;;;;;;7371292;19;20327;-78
2021/12/04 01:47:31;;;;;;;1.10;1.10;;;1.10;99.90;;;;;;7394630;19;20369;-79
2021/12/04 01:49:59;;;;;;;1.40;1.17;;;1.20;99.90;;;;;;7394002;19;20304;-79
2021/12/04 01:52:27;;;;;;;1.40;1.30;;;1.10;99.90;;;;;;7393568;19;20343;-78
2021/12/04 01:54:53;;;;;;;1.20;1.20;;;1.20;99.90;;;;;;7395421;19;20859;-78
2021/12/04 01:57:22;;;;;;;1.42;1.33;;;0.90;99.90;;;;;;7393425;19;20324;-78
2021/12/04 01:59:49;;;;;;;2.80;1.60;;;1.00;99.90;;;;;;7347417;19;20332;-81
2021/12/04 02:02:16;;;;;;;1.30;1.20;;;1.10;99.90;;;;;;7369763;19;20342;-78
2021/12/04 02:04:42;;;;;;;1.50;1.40;;;1.10;99.90;;;;;;7393929;19;20334;-79
2021/12/04 02:07:15;;;;;;;1.13;1.13;;;1.10;99.90;;;;;;7392040;19;20328;-78
2021/12/04 02:09:44;;;;;;;1.40;1.30;;;0.90;99.90;;;;;;7327817;19;20374;-79
2021/12/04 02:12:10;;;;;;;1.10;1.00;;;1.00;99.90;;;;;;7352974;19;20321;-78
2021/12/04 02:14:39;;;;;;;1.00;1.00;;;1.00;99.90;;;;;;7376885;19;20429;-79
2021/12/04 02:17:06;;;;;;;1.27;1.20;;;1.00;99.90;;;;;;7403121;19;20329;-79
2021/12/04 02:19:32;;;;;;;2.35;1.30;;;1.00;99.90;;;;;;7395850;19;20363;-78
2021/12/04 02:22:04;;;;;;;1.30;1.20;;;1.00;99.90;;;;;;7398133;19;20312;-78
2021/12/04 02:24:31;;;;;;;1.00;1.00;;;1.00;99.90;;;;;;7372832;19;20317;-79
2021/12/04 02:26:57;;;;;;;1.17;1.17;;;0.90;99.90;;;;;;7319759;19;20848;-79
2021/12/04 02:29:23;;;;;;;1.20;1.10;;;1.00;99.90;;;;;;7368171;19;20357;-78
2021/12/04 02:31:52;;;;;;;1.33;1.13;;;1.00;99.90;;;;;;7370099;19;20313;-78
2021/12/04 02:34:23;;;;;;;1.27;1.20;;;1.00;99.90;;;;;;7386223;19;20348;-78
2021/12/04 02:36:56;;;;;;;1.25;1.02;;;1.00;99.90;;;;;;7348924;19;20404;-78
2021/12/04 02:39:38;;;;;;;1.00;1.00;;;0.90;99.90;;;;;;7241767;19;2004264;-79
2021/12/04 02:42:28;;;;;;;0.93;0.93;;;0.90;99.90;;;;;;7223693;19;2004415;-79
2021/12/04 02:44:56;;;;;;;1.40;1.20;;;0.90;99.90;;;;;;7351802;19;20434;-78
2021/12/04 02:47:24;;;;;;;1.60;1.33;;;0.90;99.90;;;;;;7392389;19;20324;-80
2021/12/04 02:49:54;;;;;;;1.70;1.17;;;0.90;99.90;;;;;;7369471;19;20320;-78
2021/12/04 02:52:21;;;;;;;1.40;1.30;;;0.80;99.90;;;;;;7377901;19;20352;-79
2021/12/04 02:54:48;;;;;;;1.65;1.55;;;0.90;99.90;;;;;;7379890;19;20309;-79
2021/12/04 02:57:22;;;;;;;1.13;1.02;;;0.90;99.90;;;;;;7362628;19;20304;-79
2021/12/04 02:59:50;;;;;;;1.50;1.40;;;0.80;99.90;;;;;;7261482;19;2004480;-79
2021/12/04 03:02:19;;;;;;;1.20;1.20;;;0.80;99.90;;;;;;7386268;19;20400;-79
2021/12/04 03:04:52;;;;;;;1.10;1.10;;;0.90;99.90;;;;;;7404370;19;20324;-79
2021/12/04 03:07:21;;;;;;;1.08;1.08;;;0.90;99.90;;;;;;7400558;19;20320;-79
2021/12/04 03:09:51;;;;;;;1.30;1.20;;;0.90;99.90;;;;;;7408784;19;20308;-79
2021/12/04 03:12:27;;;;;;;1.95;1.60;;;0.80;99.90;;;;;;7251649;19;2004464;-78
2021/12/04 03:15:04;;;;;;;1.08;1.08;;;1.00;99.90;;;;;;7380156;19;20313;-79
2021/12/04 03:17:47;;;;;;;4.30;1.50;;;0.80;99.90;;;;;;7362825;19;20320;-80
2021/12/04 03:20:42;;;;;;;1.35;1.17;;;0.70;99.90;;;;;;7373904;19;20425;-79
2021/12/04 03:23:18;;;;;;;1.00;1.00;;;0.80;99.90;;;;;;7363560;19;20312;-79
2021/12/04 03:26:01;;;;;;;1.67;1.20;;;0.80;99.90;;;;;;7376042;19;20348;-79
2021/12/04 03:28:39;;;;;;;0.90;0.90;;;0.70;99.90;;;;;;7336514;19;20339;-79
2021/12/04 03:31:18;;;;;;;1.00;1.00;;;0.60;99.90;;;;;;7375064;19;20327;-79
2021/12/04 03:42:44;;;;;;;1.77;1.38;;;0.70;99.90;;;;;;7257864;19;2004298;-78
2021/12/04 03:45:20;;;;;;;1.10;1.10;;;0.80;99.90;;;;;;7358028;19;20308;-79
2021/12/04 03:48:05;;;;;;;1.40;1.30;;;0.80;99.90;;;;;;7370365;19;20335;-81
2021/12/04 03:50:51;;;;;;;1.63;1.40;;;0.80;99.90;;;;;;7365038;19;20344;-79
2021/12/04 03:53:38;;;;;;;1.35;1.25;;;0.80;99.90;;;;;;7364435;19;20332;-79
2021/12/04 03:56:05;;;;;;;2.58;1.80;;;0.90;99.90;;;;;;7363205;19;20316;-79
2021/12/04 03:58:44;;;;;;;1.00;1.00;;;0.90;99.90;;;;;;7386367;19;20909;-78
2021/12/04 04:01:20;;;;;;;1.37;1.27;;;0.80;99.90;;;;;;7242806;19;2004240;-79
2021/12/04 04:03:52;;;;;;;1.35;1.25;;;0.80;99.90;;;;;;7369524;19;20389;-80
2021/12/04 04:06:23;;;;;;;1.20;1.10;;;0.80;99.90;;;;;;7363887;19;20317;-79
2021/12/04 04:08:52;;;;;;;1.60;1.50;;;0.80;99.90;;;;;;7334192;19;20308;-80
2021/12/04 04:11:35;;;;;;;1.00;1.00;;;0.70;99.90;;;;;;7324732;19;20329;-81
2021/12/04 04:14:23;;;;;;;1.50;1.40;;;0.80;99.90;;;;;;7331444;19;20369;-80
2021/12/04 04:17:05;;;;;;;1.60;1.50;;;0.80;99.90;;;;;;7076733;19;2004606;-80
2021/12/04 04:19:42;;;;;;;1.60;1.50;;;0.80;99.90;;;;;;7366593;19;20687;-79
2021/12/04 04:22:16;;;;;;;1.83;1.50;;;0.80;99.90;;;;;;7355402;19;20301;-78
2021/12/04 04:24:52;;;;;;;1.60;1.50;;;0.70;99.90;;;;;;7265956;19;2004442;-79
2021/12/04 04:27:19;;;;;;;1.52;1.42;;;0.80;99.90;;;;;;7358422;19;20336;-79
2021/12/04 04:29:52;;;;;;;2.28;1.83;;;0.80;99.90;;;;;;7353563;19;20321;-78
2021/12/04 04:32:27;;;;;;;1.55;1.45;;;0.80;99.90;;;;;;7370798;19;20320;-78
2021/12/04 04:35:11;;;;;;;6.45;1.58;;;0.80;99.90;;;;;;7365751;19;20395;-80
2021/12/04 04:38:19;;;;;;;1.13;1.13;;;0.80;99.90;;;;;;7394114;19;20863;-79
2021/12/04 05:11:35;;;;;;;1.20;1.20;;;0.90;99.90;;;;;;7246903;19;2004479;-78
2021/12/04 05:14:05;;;;;;;1.30;1.20;;;1.10;99.90;;;;;;7407249;19;20332;-80
2021/12/04 05:16:52;;;;;;;1.00;1.00;;;1.10;99.90;;;;;;7394830;19;20396;-79
2021/12/04 05:19:29;;;;;;;1.50;1.30;;;0.90;99.90;;;;;;7388054;19;20337;-79
2021/12/04 05:22:13;;;;;;;1.20;1.20;;;0.80;99.90;;;;;;7264147;19;2004462;-81
2021/12/04 05:24:50;;;;;;;1.60;1.20;;;1.00;99.90;;;;;;7395040;19;20362;-79
2021/12/04 05:27:36;;;;;;;1.20;1.20;;;1.00;99.90;;;;;;7330475;19;20282;-79
2021/12/04 05:30:32;;;;;;;2.00;1.30;;;1.00;99.90;;;;;;7277108;19;2004464;-80
2021/12/04 05:37:01;;;;;;;1.40;1.30;;;1.00;99.90;;;;;;7244828;19;2004315;-79
2021/12/04 05:39:49;;;;;;;1.40;1.30;;;1.10;99.90;;;;;;7278014;19;2004494;-80
2021/12/04 05:43:00;;;;;;;1.42;1.35;;;1.10;99.90;;;;;;7271636;19;2004360;-79
2021/12/04 05:45:59;;;;;;;1.23;1.20;;;1.20;99.90;;;;;;7233594;19;2004392;-79
2021/12/04 05:49:17;;;;;;;1.63;1.53;;;1.10;99.90;;;;;;7273717;19;2004346;-80
2021/12/04 05:52:14;;;;;;;1.30;1.20;;;1.10;99.90;;;;;;7285937;19;2004274;-79
2021/12/04 05:58:38;;;;;;;1.50;1.40;;;1.00;99.90;;;;;;7380353;19;20321;-80
2021/12/04 06:02:23;;;;;;;1.67;1.58;;;1.00;99.90;;;;;;7398042;19;20364;-79
2021/12/04 06:05:26;;;;;;;2.70;1.70;;;1.00;99.90;;;;;;7088310;19;2004524;-79
2021/12/04 06:08:53;;;;;;;2.17;1.98;;;1.00;99.90;;;;;;7230018;19;2004341;-80
2021/12/04 06:12:04;;;;;;;2.17;2.00;;;1.00;99.90;;;;;;7414939;19;20337;-79
2021/12/04 06:18:23;;;;;;;2.40;2.20;;;1.00;99.90;;;;;;7189542;19;2004642;-79
2021/12/04 06:24:25;;;;;;;2.40;2.20;;;0.80;99.90;;;;;;7389576;19;20902;-79
2021/12/04 06:34:31;;;;;;;4.50;3.85;;;0.80;99.90;;;;;;7381622;19;20331;-80
2021/12/04 06:37:30;;;;;;;2.65;2.45;;;0.90;99.90;;;;;;7389400;19;20331;-78
2021/12/04 06:40:37;;;;;;;2.93;2.57;;;0.90;99.90;;;;;;7391749;19;20396;-80
2021/12/04 06:44:49;;;;;;;2.53;2.33;;;0.90;99.90;;;;;;7358830;19;20442;-80
2021/12/04 06:48:10;;;;;;;2.97;2.67;;;0.90;99.90;;;;;;7363575;19;20360;-79
2021/12/04 06:55:02;;;;;;;3.15;2.83;;;0.80;99.90;;;;;;7313370;19;2004390;-79
2021/12/04 07:05:48;;;;;;;4.30;3.85;;;0.70;99.90;;;;;;7393303;19;20337;-78
2021/12/04 07:12:05;;;;;;;3.78;3.47;;;0.70;99.90;;;;;;7368229;19;20677;-79
2021/12/04 07:16:04;;;;;;;3.53;3.22;;;0.70;99.90;;;;;;7369798;19;20428;-80
2021/12/04 07:25:16;;;;;;;4.72;4.32;;;0.70;99.90;;;;;;7287230;19;2004429;-79
2021/12/04 07:28:43;;;;;;;5.47;4.37;;;0.50;99.90;;;;;;7348849;19;20340;-80
2021/12/04 07:32:30;;;;;;;4.47;4.07;;;0.70;99.90;;;;;;7410933;19;20768;-80
2021/12/04 07:35:14;;;;;;;5.38;4.70;;;0.70;99.90;;;;;;7364221;19;20363;-83
2021/12/04 07:43:51;;;;;;;5.10;4.60;;;0.80;99.90;;;;;;7397689;19;20388;-83
2021/12/04 07:46:17;;;;;;;4.80;3.90;;;0.80;99.90;;;;;;7392352;19;20329;-82
2021/12/04 07:48:43;;;;;;;5.43;4.30;;;0.80;99.90;;;;;;7397968;19;20309;-85
2021/12/04 07:51:09;;;;;;;4.80;4.33;;;0.80;99.90;;;;;;7397984;19;20333;-82
2021/12/04 07:53:35;;;;;;;4.60;4.20;;;0.90;99.90;;;;;;7398927;19;20363;-84
2021/12/04 07:56:01;;;;;;;5.40;4.13;;;0.90;99.90;;;;;;7393949;19;20387;-84
2021/12/04 07:58:26;;;;;;;4.63;4.22;;;0.90;99.90;;;;;;7397074;19;20324;-82
2021/12/04 08:00:53;;;;;;;3.77;3.47;;;0.90;99.90;;;;;;7397560;19;20317;-81
2021/12/04 08:03:18;;;;;;;4.77;3.87;;;0.90;99.90;;;;;;7399310;19;20301;-82
2021/12/04 08:05:46;;;;;;;4.53;4.13;;;0.90;99.90;;;;;;7395484;19;20855;-82
2021/12/04 08:08:12;;;;;;;4.82;4.43;;;0.90;99.90;;;;;;7402796;19;20308;-82
2021/12/04 08:10:38;;;;;;;4.18;3.78;;;0.90;99.90;;;;;;7403521;19;20340;-83
2021/12/04 08:13:03;;;;;;;4.50;4.00;;;0.90;99.90;;;;;;7403659;19;20304;-83
2021/12/04 08:15:31;;;;;;;4.75;3.72;;;0.90;99.90;;;;;;7397060;19;20655;-84
2021/12/04 08:17:57;;;;;;;4.60;4.10;;;1.10;99.90;;;;;;7400958;19;20869;-84
2021/12/04 08:20:25;;;;;;;4.13;3.73;;;1.10;99.90;;;;;;7396195;19;20376;-83
2021/12/04 08:22:51;;;;;;;4.70;3.92;;;1.10;99.90;;;;;;7401814;19;20300;-81
2021/12/04 08:25:17;;;;;;;3.90;3.47;;;1.00;99.90;;;;;;7375461;19;20342;-82
2021/12/04 08:27:43;;;;;;;3.73;3.10;;;1.00;99.90;;;;;;7394859;19;20320;-81
2021/12/04 08:30:11;;;;;;;3.97;3.60;;;1.10;99.90;;;;;;7391151;19;20376;-81
2021/12/04 08:32:37;;;;;;;3.42;3.13;;;1.10;99.90;;;;;;7394003;19;20357;-80
2021/12/04 08:35:06;;;;;;;3.40;3.20;;;1.10;99.90;;;;;;7396297;19;20356;-81
2021/12/04 08:37:31;;;;;;;4.30;3.60;;;1.10;99.90;;;;;;7394972;19;20311;-88
2021/12/04 08:39:57;;;;;;;4.10;3.70;;;1.10;99.90;;;;;;7399257;19;20309;-83
2021/12/04 08:42:24;;;;;;;4.32;3.70;;;1.20;99.90;;;;;;7395441;19;20320;-82
2021/12/04 08:44:52;;;;;;;3.85;3.53;;;1.10;99.90;;;;;;7398682;19;20423;-84
2021/12/04 08:47:18;;;;;;;4.18;3.72;;;1.20;99.90;;;;;;7404810;19;20304;-83
2021/12/04 08:49:44;;;;;;;3.80;3.50;;;1.10;99.90;;;;;;7401630;19;20863;-83
2021/12/04 08:52:11;;;;;;;4.27;3.87;;;1.10;99.90;;;;;;7402258;19;20338;-82
2021/12/04 08:54:39;;;;;;;4.10;3.50;;;1.10;99.90;;;;;;7400281;19;20348;-83
2021/12/04 08:57:04;;;;;;;8.25;3.80;;;0.90;99.90;;;;;;7404117;19;20844;-83
2021/12/04 08:59:32;;;;;;;6.15;3.72;;;1.10;99.90;;;;;;7362688;19;20396;-83
2021/12/04 09:02:00;;;;;;;3.50;3.20;;;1.10;99.90;;;;;;7407529;19;20313;-83
2021/12/04 09:04:28;;;;;;;3.30;3.00;;;1.10;99.90;;;;;;7405951;19;20325;-84
2021/12/04 09:06:54;;;;;;;4.18;3.28;;;1.10;99.90;;;;;;7409409;19;20396;-84
2021/12/04 09:09:20;;;;;;;3.55;3.20;;;1.10;99.90;;;;;;7409654;19;20320;-83
2021/12/04 09:11:50;;;;;;;3.55;3.22;;;1.20;99.90;;;;;;7408244;19;20301;-83
2021/12/04 09:14:16;;;;;;;3.38;3.08;;;1.20;99.90;;;;;;7402235;19;20296;-81
2021/12/04 09:16:42;;;;;;;3.60;3.30;;;1.20;99.90;;;;;;7392832;19;20630;-81
2021/12/04 09:19:07;;;;;;;3.20;2.90;;;1.20;99.90;;;;;;7392626;19;20388;-81
2021/12/04 09:21:35;;;;;;;3.50;2.97;;;1.20;99.90;;;;;;7394360;19;20321;-81
2021/12/04 09:24:25;;;;;;;4.15;3.17;;;1.20;99.90;;;;;;7388230;19;20909;-82
2021/12/04 09:35:17;;;;;;;2.90;2.70;;;1.20;99.90;;;;;;7393263;19;20329;-81
2021/12/04 10:02:12;;;;;;;2.72;2.53;;;1.50;99.90;;;;;;7385635;19;21007;-81
2021/12/04 10:05:11;;;;;;;3.40;3.10;;;1.50;99.90;;;;;;7293413;19;2004438;-81
2021/12/04 10:16:41;;;;;;;2.55;2.35;;;1.60;99.90;;;;;;7391897;19;20374;-81
2021/12/04 10:19:18;;;;;;;2.60;2.40;;;1.70;99.90;;;;;;7289876;19;2007899;-81
2021/12/04 10:22:01;;;;;;;2.70;2.50;;;1.70;99.90;;;;;;7392593;19;20337;-81
2021/12/04 10:33:28;;;;;;;2.55;2.35;;;1.70;99.90;;;;;;7287716;19;2004509;-80
2021/12/04 10:35:54;;;;;;;2.42;2.22;;;1.80;99.90;;;;;;7393247;19;21029;-81
2021/12/04 10:38:21;;;;;;;2.50;2.30;;;1.70;99.90;;;;;;7391730;19;20327;-81
2021/12/04 10:40:49;;;;;;;2.55;2.35;;;1.70;99.90;;;;;;7408394;19;20319;-82
2021/12/04 10:43:22;;;;;;;2.55;2.35;;;1.80;99.90;;;;;;7386707;19;20313;-83
2021/12/04 10:45:54;;;;;;;2.87;2.67;;;1.80;99.90;;;;;;7392241;19;20361;-83
2021/12/04 10:48:24;;;;;;;2.70;2.45;;;1.80;99.90;;;;;;7418129;19;20353;-86
2021/12/04 10:51:01;;;;;;;2.45;2.25;;;1.70;99.90;;;;;;7400631;19;20327;-86
2021/12/04 10:53:35;;;;;;;3.05;2.45;;;1.80;99.90;;;;;;7309696;19;2004416;-83
2021/12/04 11:04:38;;;;;;;4.28;3.60;;;1.80;99.90;;;;;;7299943;19;2004403;-82
2021/12/04 11:27:06;;;;;;;2.53;1.98;;;1.70;99.90;;;;;;7296277;19;2004647;-81
2021/12/04 11:43:09;;;;;;;1.70;1.60;;;2.00;99.90;;;;;;7407209;19;20308;-82
2021/12/04 11:45:46;;;;;;;2.38;1.90;;;1.90;99.90;;;;;;7398391;19;20305;-81
2021/12/04 12:33:44;;;;;;;1.55;1.45;;;2.20;99.90;;;;;;7426791;19;20320;-84
2021/12/04 12:36:21;;;;;;;2.30;2.10;;;2.20;99.90;;;;;;7195956;19;2007498;-85
2021/12/04 12:38:55;;;;;;;2.78;1.77;;;2.10;99.90;;;;;;7420686;19;20325;-85
2021/12/04 12:41:27;;;;;;;2.03;1.83;;;2.10;99.90;;;;;;7412170;19;20308;-84
2021/12/04 12:44:03;;;;;;;1.98;1.83;;;2.10;99.90;;;;;;7411091;19;20349;-84
2021/12/04 12:46:36;;;;;;;1.80;1.70;;;2.00;99.90;;;;;;7420261;19;20362;-82
2021/12/04 12:49:03;;;;;;;1.60;1.50;;;2.00;99.90;;;;;;7417767;19;20325;-89
2021/12/04 12:51:31;;;;;;;1.70;1.60;;;2.00;99.90;;;;;;7414839;19;20303;-82
2021/12/04 12:53:59;;;;;;;2.03;1.92;;;2.00;99.90;;;;;;7413913;19;20312;-83
2021/12/04 12:56:27;;;;;;;1.60;1.50;;;2.10;99.90;;;;;;7420635;19;20325;-85
2021/12/04 12:59:06;;;;;;;1.80;1.70;;;2.00;99.90;;;;;;7417893;19;20297;-85
2021/12/04 13:19:11;;;;;;;1.58;1.48;;;2.00;99.90;;;;;;7408596;19;20304;-84
2021/12/04 13:21:42;;;;;;;1.50;1.40;;;2.00;99.90;;;;;;7404429;19;20336;-86
2021/12/04 13:24:10;;;;;;;1.80;1.70;;;2.00;99.90;;;;;;7413810;19;20321;-84
2021/12/04 13:26:38;;;;;;;2.78;1.90;;;2.00;99.90;;;;;;7414388;19;20361;-84
2021/12/04 13:29:05;;;;;;;1.83;1.67;;;2.00;99.90;;;;;;7412859;19;20337;-84
2021/12/04 13:31:34;;;;;;;1.60;1.50;;;2.00;99.90;;;;;;7413531;19;20357;-88
2021/12/04 13:34:01;;;;;;;1.97;1.70;;;2.00;99.90;;;;;;7415875;19;20324;-85
2021/12/04 13:36:32;;;;;;;3.17;1.67;;;2.10;99.90;;;;;;7417340;19;20325;-86
2021/12/04 13:39:00;;;;;;;1.45;1.30;;;2.10;99.90;;;;;;7414861;19;20323;-84
2021/12/04 13:41:26;;;;;;;1.10;1.10;;;2.00;99.90;;;;;;7413900;19;20321;-86
2021/12/04 13:43:52;;;;;;;1.63;1.52;;;2.00;99.90;;;;;;7414272;19;20376;-84
2021/12/04 13:46:24;;;;;;;1.00;1.00;;;2.10;99.90;;;;;;7413819;19;21642;-82
2021/12/04 13:48:51;;;;;;;1.08;1.00;;;2.10;99.90;;;;;;7414525;19;20371;-87
2021/12/04 13:51:17;;;;;;;1.33;1.30;;;2.10;99.90;;;;;;7379350;19;20335;-86
2021/12/04 13:53:45;;;;;;;1.00;1.00;;;2.10;99.90;;;;;;7410310;19;20340;-86
2021/12/04 13:56:13;;;;;;;1.02;1.02;;;2.20;99.90;;;;;;7415792;19;20332;-83
2021/12/04 13:58:47;;;;;;;1.10;1.10;;;2.20;99.90;;;;;;7407287;19;20320;-86
2021/12/04 14:01:14;;;;;;;1.60;1.50;;;2.30;99.90;;;;;;7413100;19;20329;-87
2021/12/04 14:03:39;;;;;;;1.58;1.48;;;2.20;99.90;;;;;;7416626;19;20341;-85
2021/12/04 14:06:16;;;;;;;1.60;1.50;;;2.20;99.90;;;;;;7414234;19;20361;-86
2021/12/04 14:08:42;;;;;;;1.70;1.60;;;2.20;99.90;;;;;;7307303;19;2004631;-82
2021/12/04 14:11:07;;;;;;;1.80;1.70;;;2.20;99.90;;;;;;7411352;19;20345;-83
2021/12/04 14:13:33;;;;;;;1.60;1.50;;;2.30;99.90;;;;;;7409391;19;20351;-82
2021/12/04 14:15:59;;;;;;;2.70;1.53;;;2.30;99.90;;;;;;7406445;19;20320;-81
2021/12/04 14:18:26;;;;;;;2.47;2.13;;;2.30;99.90;;;;;;7402943;19;20404;-82
2021/12/04 14:21:02;;;;;;;3.50;3.20;;;2.30;99.90;;;;;;7390831;19;20309;-85
2021/12/04 14:23:30;;;;;;;2.65;2.45;;;2.20;99.90;;;;;;7306129;19;2007240;-83
2021/12/04 14:25:55;;;;;;;1.65;1.55;;;2.20;99.90;;;;;;7406035;19;20344;-83
2021/12/04 14:28:25;;;;;;;2.13;1.92;;;2.20;99.90;;;;;;7410339;19;20312;-84
2021/12/04 14:30:50;;;;;;;1.60;1.50;;;2.10;99.90;;;;;;7413622;19;20950;-83
2021/12/04 14:33:21;;;;;;;1.45;1.35;;;2.20;99.90;;;;;;7418564;19;20357;-82
2021/12/04 14:35:47;;;;;;;1.83;1.73;;;2.00;99.90;;;;;;7421435;19;20344;-86
2021/12/04 14:38:17;;;;;;;1.17;1.17;;;2.00;99.90;;;;;;7421011;19;20304;-83
2021/12/04 14:40:42;;;;;;;1.50;1.40;;;1.90;99.90;;;;;;7406940;19;20329;-83
2021/12/04 14:43:10;;;;;;;1.73;1.63;;;1.90;99.90;;;;;;7414545;19;20345;-83
2021/12/04 14:45:36;;;;;;;1.60;1.50;;;1.90;99.90;;;;;;7414973;19;20376;-86
2021/12/04 14:48:11;;;;;;;1.50;1.20;;;1.90;99.90;;;;;;7415004;19;20308;-84
2021/12/04 14:50:39;;;;;;;1.65;1.55;;;1.90;99.90;;;;;;7411476;19;20344;-82
2021/12/04 14:53:06;;;;;;;2.00;1.90;;;1.90;99.90;;;;;;7409098;19;20332;-83
2021/12/04 14:55:36;;;;;;;1.20;1.20;;;1.90;99.90;;;;;;7417282;19;20347;-84
2021/12/04 14:58:05;;;;;;;1.67;1.58;;;1.80;99.90;;;;;;7308780;19;2020503;-83
2021/12/04 15:00:34;;;;;;;2.40;1.85;;;1.90;99.90;;;;;;7409590;19;20384;-82
2021/12/04 15:03:02;;;;;;;1.77;1.67;;;1.80;99.90;;;;;;7411102;19;20855;-86
2021/12/04 15:05:40;;;;;;;1.52;1.42;;;1.80;99.90;;;;;;7415633;19;20324;-83
2021/12/04 15:08:11;;;;;;;2.67;1.83;;;1.80;99.90;;;;;;7306217;19;2004348;-85
2021/12/04 15:10:38;;;;;;;4.37;3.93;;;1.80;99.90;;;;;;7397827;19;20304;-84
2021/12/04 15:13:06;;;;;;;2.57;2.37;;;1.70;99.90;;;;;;7408616;19;20350;-82
2021/12/04 15:15:34;;;;;;;1.77;1.67;;;1.70;99.90;;;;;;7411043;19;20316;-82
2021/12/04 15:18:03;;;;;;;2.47;2.17;;;1.80;99.90;;;;;;7420277;19;20329;-83
2021/12/04 15:20:36;;;;;;;1.85;1.75;;;1.70;99.90;;;;;;7415821;19;20357;-84
2021/12/04 15:23:05;;;;;;;1.98;1.88;;;1.70;99.90;;;;;;7413631;19;20316;-83
2021/12/04 15:25:34;;;;;;;1.65;1.55;;;1.60;99.90;;;;;;7413135;19;20331;-84
2021/12/04 15:28:17;;;;;;;2.03;1.88;;;1.60;99.90;;;;;;7397048;19;20297;-83
2021/12/04 15:30:47;;;;;;;2.33;2.13;;;1.60;99.90;;;;;;7283530;19;2015825;-82
2021/12/04 15:33:36;;;;;;;1.67;1.58;;;1.60;99.90;;;;;;7388726;19;20328;-84
2021/12/04 15:36:03;;;;;;;1.60;1.50;;;1.60;99.90;;;;;;7283906;19;2019984;-80
2021/12/04 15:38:42;;;;;;;2.10;2.00;;;1.70;99.90;;;;;;7396745;19;20622;-83
2021/12/04 15:54:05;;;;;;;2.27;2.07;;;1.60;99.90;;;;;;7413819;19;20319;-89
2021/12/04 17:26:07;;;;;;;4.72;4.07;;;1.20;99.90;;;;;;7396752;19;20371;-80
2021/12/04 17:29:35;;;;;;;7.00;4.73;;;1.00;99.90;;;;;;7300973;19;2004447;-81
2021/12/04 17:35:28;;;;;;;8.98;7.60;;;1.10;99.90;;;;;;7407226;19;20412;-79
2021/12/04 17:37:54;;;;;;;5.35;4.75;;;1.10;99.90;;;;;;7406257;19;20337;-83
2021/12/04 17:40:19;;;;;;;3.88;2.70;;;1.10;99.90;;;;;;7404163;19;20394;-83
2021/12/04 17:42:45;;;;;;;3.60;3.30;;;1.00;99.90;;;;;;7404257;19;20971;-84
2021/12/04 17:45:12;;;;;;;4.88;4.10;;;0.90;99.90;;;;;;7391325;19;20304;-85
2021/12/04 17:47:46;;;;;;;3.38;3.08;;;0.90;99.90;;;;;;7414866;19;20313;-82
2021/12/04 17:50:13;;;;;;;3.33;3.10;;;0.90;99.90;;;;;;7409144;19;20289;-84
2021/12/04 18:23:35;;;;;;;5.87;4.53;;;0.90;99.90;;;;;;7293549;19;2004415;-78
2021/12/04 18:26:02;;;;;;;9.88;6.28;;;1.00;99.90;;;;;;7403732;19;20320;-77
2021/12/04 18:28:35;;;;;;;9.25;6.78;;;1.10;99.90;;;;;;7398098;19;20353;-78
2021/12/04 18:31:12;;;;;;;8.40;6.38;;;1.00;99.90;;;;;;7393479;19;20307;-78
2021/12/04 18:54:30;;;;;;;4.80;4.05;;;1.00;99.90;;;;;;7371528;19;20346;-80
2021/12/04 18:58:12;;;;;;;4.65;4.15;;;1.00;99.90;;;;;;7286246;19;2004379;-79
2021/12/04 19:01:47;;;;;;;5.35;4.00;;;1.00;99.90;;;;;;7310300;19;2004455;-79
2021/12/04 19:04:59;;;;;;;4.95;3.95;;;1.00;99.90;;;;;;7405658;19;20340;-80
2021/12/04 19:25:40;;;;;;;5.40;4.50;;;1.00;99.90;;;;;;7407652;19;20365;-79
2021/12/04 19:28:08;;;;;;;6.40;5.15;;;0.90;99.90;;;;;;7388797;19;20301;-84
2021/12/04 19:30:48;;;;;;;6.85;5.20;;;0.90;99.90;;;;;;7411120;19;20649;-82
2021/12/04 19:33:40;;;;;;;6.90;4.57;;;0.90;99.90;;;;;;7305035;19;2004404;-84
2021/12/04 19:52:57;;;;;;;8.10;6.10;;;1.00;99.90;;;;;;7265322;19;2004406;-83
2021/12/04 19:55:27;;;;;;;7.53;6.50;;;0.90;99.90;;;;;;7411143;19;20348;-82
2021/12/04 19:57:54;;;;;;;6.30;5.60;;;0.90;99.90;;;;;;7410758;19;20384;-81
2021/12/04 20:00:28;;;;;;;7.20;6.00;;;0.70;99.90;;;;;;7413947;19;20315;-83
2021/12/04 20:03:10;;;;;;;6.80;5.18;;;0.80;99.90;;;;;;7408066;19;20312;-82
2021/12/04 20:06:00;;;;;;;7.43;5.45;;;0.80;99.90;;;;;;7416588;19;20396;-83
2021/12/04 20:08:52;;;;;;;6.97;5.82;;;0.80;99.90;;;;;;7289236;19;2004417;-84
2021/12/04 21:12:32;;;;;;;10.50;6.50;;;0.50;99.90;;;;;;7309432;19;2004559;-86
2021/12/04 21:50:12;;;;;;;8.95;7.70;;;0.20;99.90;;;;;;7411042;19;20363;-84
2021/12/04 21:52:37;;;;;;;8.82;7.47;;;0.20;99.90;;;;;;7277850;19;2004341;-84
2021/12/04 21:55:36;;;;;;;7.33;6.57;;;0.20;99.90;;;;;;7354280;19;20400;-88
2021/12/04 22:09:31;;;;;;;10.85;7.38;;;0.20;99.90;;;;;;7297105;19;2004425;-82
2021/12/04 22:54:58;;;;;;;9.93;7.00;;;0.50;99.90;;;;;;7293621;19;2004414;-82
2021/12/04 23:01:30;;;;;;;9.75;7.05;;;0.60;99.90;;;;;;7416181;19;20324;-82
2021/12/04 23:04:50;;;;;;;7.07;6.22;;;0.60;99.90;;;;;;7388636;19;20344;-85
